createdAt,value
2023-05-12T00:01:23.780Z,5.65
2023-05-12T00:03:54.085Z,3.83
2023-05-12T00:06:21.693Z,6.07
2023-05-12T00:08:48.780Z,5.38
2023-05-12T00:11:15.978Z,6.60
2023-05-12T00:13:43.117Z,6.07
2023-05-12T00:16:10.465Z,4.93
2023-05-12T00:18:37.600Z,5.80
2023-05-12T00:21:05.064Z,3.92
2023-05-12T00:23:32.166Z,4.28
2023-05-12T00:25:59.339Z,5.68
2023-05-12T00:28:26.521Z,6.00
2023-05-12T00:30:53.607Z,5.60
2023-05-12T00:33:20.823Z,5.82
2023-05-12T00:35:48.184Z,4.53
2023-05-12T00:38:15.256Z,5.78
2023-05-12T00:40:42.389Z,5.28
2023-05-12T00:43:09.874Z,5.28
2023-05-12T00:45:37.362Z,5.13
2023-05-12T00:48:06.716Z,5.03
2023-05-12T00:50:33.844Z,5.00
2023-05-12T00:53:02.345Z,4.97
2023-05-12T00:55:31.444Z,5.40
2023-05-12T00:57:59.638Z,4.47
2023-05-12T01:00:28.301Z,3.85
2023-05-12T01:02:58.837Z,4.50
2023-05-12T01:06:13.198Z,6.75
2023-05-12T01:08:42.501Z,5.45
2023-05-12T01:11:10.303Z,5.47
2023-05-12T01:13:39.743Z,5.78
2023-05-12T01:16:10.434Z,5.38
2023-05-12T01:18:40.647Z,5.75
2023-05-12T01:21:10.638Z,6.10
2023-05-12T01:23:42.833Z,3.90
2023-05-12T01:26:11.475Z,4.32
2023-05-12T01:28:41.487Z,4.78
2023-05-12T01:31:10.138Z,4.65
2023-05-12T01:33:39.017Z,6.05
2023-05-12T01:36:07.116Z,5.85
2023-05-12T01:38:35.146Z,4.85
2023-05-12T01:41:02.499Z,6.00
2023-05-12T01:43:30.055Z,4.88
2023-05-12T01:45:57.405Z,5.18
2023-05-12T01:48:24.931Z,5.88
2023-05-12T01:50:52.032Z,5.95
2023-05-12T01:53:21.590Z,4.50
2023-05-12T01:55:48.634Z,4.43
2023-05-12T01:58:16.564Z,5.72
2023-05-12T02:00:43.684Z,5.13
2023-05-12T02:03:15.414Z,5.45
2023-05-12T02:05:42.595Z,5.65
2023-05-12T02:08:09.766Z,6.13
2023-05-12T02:10:36.964Z,4.18
2023-05-12T02:13:04.500Z,4.57
2023-05-12T02:15:33.972Z,6.70
2023-05-12T02:18:01.338Z,5.35
2023-05-12T02:20:30.036Z,6.30
2023-05-12T02:22:57.371Z,7.43
2023-05-12T02:25:24.631Z,6.43
2023-05-12T02:27:51.740Z,7.07
2023-05-12T02:30:19.232Z,5.75
2023-05-12T02:32:46.618Z,5.60
2023-05-12T02:35:14.068Z,5.15
2023-05-12T02:37:42.561Z,4.70
2023-05-12T02:40:10.097Z,5.55
2023-05-12T02:42:38.726Z,5.40
2023-05-12T02:45:07.668Z,6.40
2023-05-12T02:47:34.843Z,5.18
2023-05-12T02:50:02.156Z,5.90
2023-05-12T02:52:29.366Z,5.47
2023-05-12T02:54:57.247Z,5.68
2023-05-12T02:57:24.562Z,5.15
2023-05-12T02:59:51.621Z,6.63
2023-05-12T03:02:18.901Z,8.07
2023-05-12T03:04:45.973Z,7.25
2023-05-12T03:07:13.135Z,7.45
2023-05-12T03:09:40.395Z,7.30
2023-05-12T03:12:08.241Z,8.80
2023-05-12T03:14:35.415Z,8.70
2023-05-12T03:17:02.762Z,9.77
2023-05-12T03:19:29.858Z,8.85
2023-05-12T03:21:57.081Z,9.55
2023-05-12T03:24:24.913Z,10.25
2023-05-12T03:26:52.009Z,9.13
2023-05-12T03:29:19.282Z,9.40
2023-05-12T03:31:46.800Z,10.05
2023-05-12T03:34:14.616Z,9.18
2023-05-12T03:36:42.463Z,9.88
2023-05-12T03:39:09.938Z,9.70
2023-05-12T03:41:37.538Z,8.90
2023-05-12T03:44:12.703Z,8.70
2023-05-12T03:46:39.905Z,8.23
2023-05-12T03:49:07.050Z,8.68
2023-05-12T03:51:34.267Z,9.48
2023-05-12T03:54:01.331Z,8.25
2023-05-12T03:56:29.198Z,9.00
2023-05-12T03:58:57.639Z,8.43
2023-05-12T04:01:24.730Z,9.77
2023-05-12T04:03:51.901Z,9.27
2023-05-12T04:06:19.092Z,9.82
2023-05-12T04:08:46.240Z,9.20
2023-05-12T04:11:14.366Z,8.52
2023-05-12T04:13:42.591Z,8.68
2023-05-12T04:16:10.216Z,10.07
2023-05-12T04:18:37.388Z,8.02
2023-05-12T04:21:04.589Z,8.43
2023-05-12T04:23:31.681Z,9.75
2023-05-12T04:25:58.881Z,8.77
2023-05-12T04:28:26.150Z,9.57
2023-05-12T04:30:53.558Z,9.48
2023-05-12T04:33:23.191Z,9.05
2023-05-12T04:35:50.371Z,9.00
2023-05-12T04:38:18.005Z,8.90
2023-05-12T04:40:45.171Z,9.65
2023-05-12T04:43:59.892Z,9.07
2023-05-12T04:46:00.655Z,7.95
2023-05-12T04:48:29.540Z,8.13
2023-05-12T04:51:00.072Z,6.93
2023-05-12T04:53:34.836Z,7.47
2023-05-12T04:56:03.052Z,7.80
2023-05-12T04:58:35.051Z,8.70
2023-05-12T05:01:02.522Z,8.18
2023-05-12T05:03:29.938Z,8.15
2023-05-12T05:05:57.199Z,7.93
2023-05-12T05:08:24.999Z,8.10
2023-05-12T05:10:52.044Z,7.32
2023-05-12T05:13:19.226Z,8.32
2023-05-12T05:15:55.806Z,7.65
2023-05-12T05:18:25.061Z,7.20
2023-05-12T05:20:58.343Z,7.80
2023-05-12T05:25:54.813Z,7.30
2023-05-12T05:28:22.172Z,7.53
2023-05-12T05:30:49.257Z,7.05
2023-05-12T05:33:17.261Z,7.43
2023-05-12T05:35:44.620Z,7.38
2023-05-12T05:38:12.522Z,7.63
2023-05-12T05:40:52.055Z,7.95
2023-05-12T05:43:20.033Z,7.15
2023-05-12T05:45:49.702Z,7.60
2023-05-12T05:48:17.014Z,7.28
2023-05-12T05:50:44.630Z,6.38
2023-05-12T05:53:11.766Z,7.00
2023-05-12T05:55:38.926Z,6.45
2023-05-12T05:58:06.646Z,6.63
2023-05-12T06:00:33.970Z,6.78
2023-05-12T06:03:01.620Z,7.55
2023-05-12T06:05:28.965Z,7.20
2023-05-12T06:07:56.008Z,7.20
2023-05-12T06:10:23.125Z,6.78
2023-05-12T06:12:50.826Z,6.32
2023-05-12T06:15:18.820Z,6.10
2023-05-12T06:17:46.214Z,6.30
2023-05-12T06:20:13.890Z,5.82
2023-05-12T06:22:42.670Z,4.30
2023-05-12T06:25:10.417Z,3.42
2023-05-12T06:27:38.546Z,3.22
2023-05-12T06:30:06.936Z,3.45
2023-05-12T06:32:34.308Z,3.63
2023-05-12T06:35:01.742Z,3.75
2023-05-12T06:37:28.878Z,3.15
2023-05-12T06:39:55.978Z,3.30
2023-05-12T06:42:24.616Z,3.20
2023-05-12T06:44:52.314Z,4.20
2023-05-12T06:47:21.207Z,4.00
2023-05-12T06:49:50.428Z,4.97
2023-05-12T06:52:17.827Z,4.70
2023-05-12T06:54:44.881Z,4.90
2023-05-12T06:57:11.930Z,4.22
2023-05-12T06:59:39.163Z,4.93
2023-05-12T07:02:06.305Z,4.60
2023-05-12T07:04:33.446Z,4.80
2023-05-12T07:07:00.554Z,3.80
2023-05-12T07:09:27.650Z,4.88
2023-05-12T07:11:54.808Z,4.72
2023-05-12T07:14:21.804Z,5.32
2023-05-12T07:16:48.885Z,5.07
2023-05-12T07:19:15.967Z,4.18
2023-05-12T07:21:44.007Z,3.95
2023-05-12T07:24:11.286Z,3.83
2023-05-12T07:26:38.555Z,3.47
2023-05-12T07:29:07.505Z,3.75
2023-05-12T07:31:34.676Z,3.38
2023-05-12T07:34:01.936Z,3.60
2023-05-12T07:36:29.105Z,3.88
2023-05-12T07:38:56.359Z,3.22
2023-05-12T07:41:23.925Z,3.30
2023-05-12T07:43:51.772Z,3.00
2023-05-12T07:46:18.894Z,4.03
2023-05-12T07:48:46.288Z,4.07
2023-05-12T07:51:13.354Z,3.83
2023-05-12T07:53:43.416Z,4.30
2023-05-12T07:56:11.348Z,3.63
2023-05-12T07:58:38.437Z,3.75
2023-05-12T08:01:07.069Z,3.92
2023-05-12T08:03:35.703Z,4.45
2023-05-12T08:06:03.878Z,4.40
2023-05-12T08:08:31.067Z,4.38
2023-05-12T08:10:58.148Z,4.07
2023-05-12T08:13:26.822Z,3.50
2023-05-12T08:15:54.013Z,3.40
2023-05-12T08:18:21.303Z,3.50
2023-05-12T08:20:50.528Z,2.67
2023-05-12T08:23:17.966Z,3.45
2023-05-12T08:25:45.139Z,3.00
2023-05-12T08:28:13.237Z,3.00
2023-05-12T08:30:41.355Z,3.10
2023-05-12T08:33:08.507Z,2.90
2023-05-12T08:35:36.345Z,3.30
2023-05-12T08:38:03.601Z,3.35
2023-05-12T08:40:34.276Z,3.40
2023-05-12T08:43:13.174Z,3.55
2023-05-12T08:45:40.956Z,3.17
2023-05-12T08:48:11.452Z,3.33
2023-05-12T08:50:41.652Z,3.60
2023-05-12T08:53:12.483Z,3.63
2023-05-12T08:55:50.802Z,3.60
2023-05-12T08:58:37.761Z,3.83
2023-05-12T09:01:07.953Z,3.50
2023-05-12T09:03:35.487Z,2.90
2023-05-12T09:06:03.971Z,2.60
2023-05-12T09:08:35.339Z,2.92
2023-05-12T09:11:02.944Z,2.95
2023-05-12T09:13:46.497Z,3.00
2023-05-12T09:16:15.316Z,2.97
2023-05-12T09:18:52.399Z,3.00
2023-05-12T09:21:20.061Z,2.90
2023-05-12T09:24:06.416Z,3.05
2023-05-12T09:26:46.634Z,2.83
2023-05-12T09:29:24.040Z,2.55
2023-05-12T09:31:58.067Z,2.65
2023-05-12T09:34:32.685Z,2.60
2023-05-12T09:37:02.408Z,2.53
2023-05-12T09:39:29.468Z,2.33
2023-05-12T09:41:56.896Z,2.10
2023-05-12T09:44:25.038Z,2.20
2023-05-12T09:46:53.228Z,2.17
2023-05-12T09:49:28.292Z,2.40
2023-05-12T09:51:59.473Z,2.50
2023-05-12T09:54:28.637Z,2.22
2023-05-12T09:57:02.858Z,2.35
2023-05-12T09:59:34.865Z,2.45
2023-05-12T10:02:05.880Z,2.78
2023-05-12T10:04:41.999Z,2.47
2023-05-12T10:07:12.170Z,2.40
2023-05-12T10:09:42.693Z,2.47
2023-05-12T10:12:10.394Z,2.40
2023-05-12T10:14:38.053Z,2.17
2023-05-12T10:17:07.397Z,2.22
2023-05-12T10:19:36.095Z,1.90
2023-05-12T10:22:04.358Z,2.00
2023-05-12T10:24:32.017Z,2.40
2023-05-12T10:26:59.901Z,2.20
2023-05-12T10:29:31.483Z,1.80
2023-05-12T10:31:59.655Z,2.10
2023-05-12T10:34:33.511Z,1.85
2023-05-12T10:37:01.597Z,1.90
2023-05-12T10:39:30.331Z,1.92
2023-05-12T10:42:10.589Z,2.20
2023-05-12T10:44:50.944Z,2.20
2023-05-12T10:47:18.235Z,2.33
2023-05-12T10:49:45.691Z,2.20
2023-05-12T10:52:14.005Z,2.30
2023-05-12T10:54:45.568Z,2.80
2023-05-12T10:57:20.991Z,2.38
2023-05-12T10:59:56.907Z,2.65
2023-05-12T11:02:27.863Z,2.80
2023-05-12T11:05:04.744Z,3.00
2023-05-12T11:07:35.237Z,2.90
2023-05-12T11:10:05.405Z,3.28
2023-05-12T11:12:36.466Z,3.30
2023-05-12T11:15:05.672Z,3.72
2023-05-12T11:17:33.358Z,3.50
2023-05-12T11:20:01.911Z,3.65
2023-05-12T11:22:29.242Z,3.40
2023-05-12T11:24:56.388Z,3.40
2023-05-12T11:27:26.667Z,3.80
2023-05-12T11:30:06.821Z,3.25
2023-05-12T11:32:33.939Z,3.72
2023-05-12T11:35:16.377Z,3.80
2023-05-12T11:37:44.945Z,3.60
2023-05-12T11:40:16.338Z,2.60
2023-05-12T11:42:47.904Z,3.20
2023-05-12T11:45:29.097Z,3.00
2023-05-12T11:48:13.361Z,3.15
2023-05-12T11:50:51.578Z,2.90
2023-05-12T11:53:19.622Z,3.13
2023-05-12T11:55:57.023Z,2.60
2023-05-12T11:58:27.112Z,3.30
2023-05-12T12:00:54.906Z,4.18
2023-05-12T12:03:22.178Z,5.00
2023-05-12T12:06:03.397Z,5.30
2023-05-12T12:08:30.579Z,5.18
2023-05-12T12:10:57.673Z,4.82
2023-05-12T12:13:26.165Z,5.25
2023-05-12T12:15:53.306Z,5.28
2023-05-12T12:18:20.609Z,5.07
2023-05-12T12:20:47.959Z,5.30
2023-05-12T12:23:15.279Z,5.30
2023-05-12T12:25:42.505Z,5.43
2023-05-12T12:28:09.584Z,5.13
2023-05-12T12:30:36.678Z,5.47
2023-05-12T12:33:03.868Z,5.65
2023-05-12T12:35:31.136Z,5.32
2023-05-12T12:37:58.957Z,5.30
2023-05-12T12:40:26.073Z,5.07
2023-05-12T12:42:53.726Z,5.50
2023-05-12T12:45:20.920Z,5.30
2023-05-12T12:47:48.120Z,4.75
2023-05-12T12:50:15.307Z,4.82
2023-05-12T12:52:42.484Z,5.72
2023-05-12T12:55:10.299Z,5.20
2023-05-12T12:57:37.481Z,5.22
2023-05-12T13:00:05.987Z,4.85
2023-05-12T13:02:33.836Z,5.43
2023-05-12T13:05:06.400Z,4.82
2023-05-12T13:07:33.898Z,4.80
2023-05-12T13:10:01.178Z,5.10
2023-05-12T13:12:29.688Z,4.50
2023-05-12T13:14:57.246Z,4.30
2023-05-12T13:17:24.375Z,4.85
2023-05-12T13:19:53.009Z,4.50
2023-05-12T13:22:20.894Z,4.53
2023-05-12T13:24:48.513Z,4.32
2023-05-12T13:27:15.594Z,4.38
2023-05-12T13:29:42.721Z,4.00
2023-05-12T13:32:09.913Z,3.80
2023-05-12T13:34:36.999Z,4.05
2023-05-12T13:37:04.225Z,3.60
2023-05-12T13:39:31.389Z,3.80
2023-05-12T13:41:58.500Z,4.13
2023-05-12T13:44:25.792Z,4.00
2023-05-12T13:46:52.876Z,3.80
2023-05-12T13:49:22.911Z,3.90
2023-05-12T13:51:49.969Z,3.92
2023-05-12T13:54:17.114Z,4.43
2023-05-12T13:56:44.195Z,3.90
2023-05-12T13:59:11.287Z,3.88
2023-05-12T14:01:41.448Z,3.30
2023-05-12T14:04:08.487Z,3.72
2023-05-12T14:06:35.522Z,3.53
2023-05-12T14:09:02.722Z,3.58
2023-05-12T14:11:29.749Z,3.92
2023-05-12T14:13:56.849Z,3.55
2023-05-12T14:16:23.918Z,3.33
2023-05-12T14:18:51.136Z,3.60
2023-05-12T14:21:18.396Z,3.40
2023-05-12T14:23:45.642Z,3.58
2023-05-12T14:26:12.736Z,3.63
2023-05-12T14:28:40.049Z,4.00
2023-05-12T14:31:07.295Z,3.53
2023-05-12T14:33:34.466Z,3.80
2023-05-12T14:36:07.364Z,3.55
2023-05-12T14:38:36.191Z,3.53
2023-05-12T14:41:03.385Z,3.97
2023-05-12T14:43:30.497Z,3.60
2023-05-12T14:45:57.937Z,3.78
2023-05-12T14:48:28.217Z,3.47
2023-05-12T14:50:56.452Z,4.28
2023-05-12T14:53:24.177Z,3.78
2023-05-12T14:55:52.125Z,4.05
2023-05-12T14:58:19.357Z,3.83
2023-05-12T15:00:47.607Z,4.18
2023-05-12T15:03:15.000Z,4.60
2023-05-12T15:06:01.597Z,3.85
2023-05-12T15:08:29.852Z,4.00
2023-05-12T15:10:56.893Z,3.85
2023-05-12T15:13:24.075Z,4.10
2023-05-12T15:15:54.200Z,3.80
2023-05-12T15:18:23.707Z,3.90
2023-05-12T15:20:50.814Z,3.78
2023-05-12T15:23:17.862Z,4.25
2023-05-12T15:25:45.039Z,3.67
2023-05-12T15:28:12.138Z,4.15
2023-05-12T15:30:39.354Z,4.10
2023-05-12T15:33:06.923Z,3.60
2023-05-12T15:35:34.562Z,4.15
2023-05-12T15:38:01.771Z,3.78
2023-05-12T15:40:31.302Z,3.72
2023-05-12T15:42:58.813Z,4.18
2023-05-12T15:45:25.941Z,3.95
2023-05-12T15:47:53.149Z,3.30
2023-05-12T15:50:23.196Z,4.38
2023-05-12T15:52:50.723Z,3.50
2023-05-12T15:55:18.011Z,3.40
2023-05-12T15:57:45.279Z,2.92
2023-05-12T16:00:13.192Z,3.28
2023-05-12T16:02:40.619Z,2.47
2023-05-12T16:05:08.466Z,2.95
2023-05-12T16:07:35.851Z,2.78
2023-05-12T16:10:04.087Z,2.80
2023-05-12T16:12:31.530Z,2.90
2023-05-12T16:14:58.849Z,2.75
2023-05-12T16:17:26.038Z,2.65
2023-05-12T16:19:54.025Z,2.60
2023-05-12T16:22:21.245Z,2.92
2023-05-12T16:24:48.387Z,2.97
2023-05-12T16:27:15.476Z,3.05
2023-05-12T16:29:46.021Z,2.80
2023-05-12T16:32:13.343Z,3.17
2023-05-12T16:34:40.469Z,3.15
2023-05-12T16:37:07.737Z,3.05
2023-05-12T16:39:36.152Z,2.95
2023-05-12T16:42:03.686Z,2.83
2023-05-12T16:44:30.741Z,2.88
2023-05-12T16:46:57.865Z,3.17
2023-05-12T16:49:25.056Z,3.20
2023-05-12T16:51:52.220Z,2.80
2023-05-12T16:54:19.330Z,2.95
2023-05-12T16:56:47.437Z,2.90
2023-05-12T16:59:14.899Z,3.08
2023-05-12T17:01:42.084Z,3.30
2023-05-12T17:04:12.112Z,3.20
2023-05-12T17:06:39.217Z,3.15
2023-05-12T17:09:06.351Z,2.80
2023-05-12T17:11:33.473Z,2.97
2023-05-12T17:14:01.313Z,2.95
2023-05-12T17:16:28.928Z,3.20
2023-05-12T17:21:27.016Z,2.80
2023-05-12T17:23:54.778Z,2.72
2023-05-12T17:26:21.976Z,2.75
2023-05-12T17:28:49.095Z,2.60
2023-05-12T17:31:16.191Z,2.30
2023-05-12T17:33:43.377Z,2.50
2023-05-12T17:36:13.376Z,2.78
2023-05-12T17:38:41.513Z,2.55
2023-05-12T17:41:08.795Z,2.60
2023-05-12T17:43:36.102Z,2.65
2023-05-12T17:46:05.034Z,3.00
2023-05-12T17:48:33.620Z,3.60
2023-05-12T17:51:01.692Z,3.05
2023-05-12T17:53:29.233Z,3.00
2023-05-12T17:55:56.368Z,3.15
2023-05-12T17:58:23.748Z,3.00
2023-05-12T18:00:51.116Z,3.03
2023-05-12T18:03:23.784Z,3.05
2023-05-12T18:05:52.425Z,2.70
2023-05-12T18:08:19.701Z,3.20
2023-05-12T18:10:47.167Z,2.88
2023-05-12T18:13:15.761Z,2.90
2023-05-12T18:15:43.147Z,2.65
2023-05-12T18:18:11.050Z,2.97
2023-05-12T18:20:38.616Z,2.85
2023-05-12T18:23:05.794Z,2.75
2023-05-12T18:25:32.935Z,2.83
2023-05-12T18:28:00.152Z,3.10
2023-05-12T18:30:27.247Z,2.75
2023-05-12T18:32:54.458Z,3.30
2023-05-12T18:35:22.059Z,2.80
2023-05-12T18:37:49.825Z,2.90
2023-05-12T18:40:17.284Z,2.88
2023-05-12T18:42:44.401Z,2.88
2023-05-12T18:45:12.367Z,2.90
2023-05-12T18:47:39.855Z,2.78
2023-05-12T18:50:08.136Z,2.92
2023-05-12T18:52:35.404Z,2.85
2023-05-12T18:55:02.979Z,3.20
2023-05-12T18:57:30.407Z,2.70
2023-05-12T18:59:57.511Z,3.20
2023-05-12T19:02:24.626Z,3.22
2023-05-12T19:04:52.446Z,3.20
2023-05-12T19:07:19.768Z,3.40
2023-05-12T19:09:46.928Z,3.00
2023-05-12T19:12:14.154Z,3.10
2023-05-12T19:14:41.277Z,3.10
2023-05-12T19:17:08.453Z,3.03
2023-05-12T19:19:35.612Z,3.20
2023-05-12T19:22:04.527Z,3.10
2023-05-12T19:24:31.823Z,3.08
2023-05-12T19:26:59.631Z,3.22
2023-05-12T19:29:26.700Z,3.30
2023-05-12T19:31:54.028Z,3.47
2023-05-12T19:34:21.929Z,3.50
2023-05-12T19:36:49.179Z,2.90
2023-05-12T19:39:16.360Z,3.40
2023-05-12T19:41:43.684Z,3.22
2023-05-12T19:44:10.953Z,3.17
2023-05-12T19:46:38.160Z,3.38
2023-05-12T19:49:06.288Z,3.40
2023-05-12T19:51:33.567Z,3.38
2023-05-12T19:54:02.294Z,3.70
2023-05-12T19:56:29.830Z,4.20
2023-05-12T19:58:57.028Z,4.20
2023-05-12T20:01:24.342Z,3.83
2023-05-12T20:03:52.865Z,3.78
2023-05-12T20:06:20.736Z,5.15
2023-05-12T20:08:48.584Z,3.88
2023-05-12T20:11:16.194Z,3.90
2023-05-12T20:13:43.316Z,3.63
2023-05-12T20:16:10.475Z,3.70
2023-05-12T20:18:37.599Z,4.38
2023-05-12T20:21:04.757Z,4.70
2023-05-12T20:23:31.840Z,4.47
2023-05-12T20:25:59.160Z,4.65
2023-05-12T20:28:26.413Z,4.50
2023-05-12T20:30:53.590Z,4.05
2023-05-12T20:33:21.155Z,4.85
2023-05-12T20:35:48.387Z,4.40
2023-05-12T20:38:15.540Z,3.80
2023-05-12T20:40:42.670Z,4.43
2023-05-12T20:43:09.887Z,4.60
2023-05-12T20:45:37.879Z,4.28
2023-05-12T20:48:05.261Z,4.15
2023-05-12T20:50:32.424Z,4.47
2023-05-12T20:52:59.683Z,4.20
2023-05-12T20:55:26.953Z,4.53
2023-05-12T20:57:54.198Z,4.40
2023-05-12T21:00:21.981Z,3.97
2023-05-12T21:02:52.588Z,4.40
2023-05-12T21:05:21.163Z,4.05
2023-05-12T21:07:48.624Z,4.20
2023-05-12T21:10:15.755Z,4.50
2023-05-12T21:12:42.959Z,4.72
2023-05-12T21:15:11.404Z,4.20
2023-05-12T21:17:39.856Z,4.30
2023-05-12T21:20:11.928Z,4.57
2023-05-12T21:22:40.944Z,4.32
2023-05-12T21:25:08.486Z,4.00
2023-05-12T21:27:40.848Z,4.07
2023-05-12T21:30:09.551Z,4.30
2023-05-12T21:32:37.901Z,4.15
2023-05-12T21:35:06.099Z,4.30
2023-05-12T21:37:33.489Z,3.90
2023-05-12T21:40:00.881Z,3.53
2023-05-12T21:42:28.177Z,4.20
2023-05-12T21:44:55.420Z,4.18
2023-05-12T21:47:22.591Z,3.90
2023-05-12T21:49:54.971Z,3.88
2023-05-12T21:52:22.638Z,3.60
2023-05-12T21:54:49.712Z,3.60
2023-05-12T21:57:16.955Z,3.80
2023-05-12T21:59:44.110Z,3.60
2023-05-12T22:02:11.426Z,3.80
2023-05-12T22:04:38.739Z,3.70
2023-05-12T22:07:06.273Z,3.67
2023-05-12T22:09:33.367Z,3.67
2023-05-12T22:12:00.595Z,3.63
2023-05-12T22:14:28.015Z,3.67
2023-05-12T22:16:56.254Z,3.80
2023-05-12T22:19:23.463Z,4.07
2023-05-12T22:21:51.114Z,4.22
2023-05-12T22:24:18.213Z,3.78
2023-05-12T22:26:45.291Z,4.20
2023-05-12T22:29:12.479Z,4.00
2023-05-12T22:31:39.877Z,3.95
2023-05-12T22:34:07.193Z,3.55
2023-05-12T22:36:34.515Z,3.53
2023-05-12T22:39:01.666Z,3.97
2023-05-12T22:41:28.710Z,3.75
2023-05-12T22:43:55.815Z,4.03
2023-05-12T22:46:22.956Z,4.45
2023-05-12T22:48:51.235Z,3.63
2023-05-12T22:51:18.412Z,3.58
2023-05-12T22:53:45.761Z,3.30
2023-05-12T22:56:12.971Z,3.63
2023-05-12T22:58:40.049Z,4.30
2023-05-12T23:01:07.398Z,3.75
2023-05-12T23:03:34.570Z,3.45
2023-05-12T23:06:01.807Z,3.75
2023-05-12T23:08:28.855Z,3.83
2023-05-12T23:10:56.076Z,3.58
2023-05-12T23:13:23.222Z,3.00
2023-05-12T23:15:50.263Z,3.20
2023-05-12T23:18:17.367Z,3.65
2023-05-12T23:20:44.414Z,3.75
2023-05-12T23:23:11.462Z,4.15
2023-05-12T23:25:39.126Z,4.80
2023-05-12T23:28:06.882Z,4.40
2023-05-12T23:30:34.014Z,3.95
2023-05-12T23:33:01.324Z,3.83
2023-05-12T23:35:28.812Z,4.70
2023-05-12T23:37:55.867Z,4.32
2023-05-12T23:40:23.317Z,3.55
2023-05-12T23:42:50.563Z,3.50
2023-05-12T23:45:17.660Z,3.90
2023-05-12T23:47:44.902Z,3.22
2023-05-12T23:50:12.082Z,3.20
2023-05-12T23:52:39.209Z,3.60
2023-05-12T23:55:06.784Z,3.88
2023-05-12T23:57:33.940Z,4.00
